createdAt,value
2024-01-10T00:01:58.627Z,-4.35
2024-01-10T00:04:25.372Z,-4.37
2024-01-10T00:06:52.032Z,-4.39
2024-01-10T00:09:18.680Z,-4.39
2024-01-10T00:11:45.480Z,-4.41
2024-01-10T00:14:12.391Z,-4.42
2024-01-10T00:16:39.174Z,-4.42
2024-01-10T00:19:05.902Z,-4.43
2024-01-10T00:21:32.702Z,-4.43
2024-01-10T00:24:01.772Z,-4.45
2024-01-10T00:26:28.470Z,-4.47
2024-01-10T00:28:55.087Z,-4.50
2024-01-10T00:31:31.040Z,-4.49
2024-01-10T00:33:57.693Z,-4.52
2024-01-10T00:36:25.312Z,-4.52
2024-01-10T00:38:51.885Z,-4.53
2024-01-10T00:41:19.008Z,-4.54
2024-01-10T00:43:45.899Z,-4.55
2024-01-10T00:46:12.710Z,-4.57
2024-01-10T00:48:39.351Z,-4.59
2024-01-10T00:51:10.077Z,-4.59
2024-01-10T00:53:37.397Z,-4.60
2024-01-10T00:56:04.257Z,-4.61
2024-01-10T00:58:30.933Z,-4.61
2024-01-10T01:00:57.615Z,-4.62
2024-01-10T01:03:24.599Z,-4.62
2024-01-10T01:05:51.385Z,-4.62
2024-01-10T01:08:18.260Z,-4.65
2024-01-10T01:10:44.947Z,-4.64
2024-01-10T01:13:11.768Z,-4.66
2024-01-10T01:15:38.405Z,-4.67
2024-01-10T01:18:05.529Z,-4.66
2024-01-10T01:20:32.298Z,-4.69
2024-01-10T01:22:59.582Z,-4.72
2024-01-10T01:25:26.283Z,-4.72
2024-01-10T01:27:52.965Z,-4.73
2024-01-10T01:30:23.011Z,-4.73
2024-01-10T01:32:50.105Z,-4.75
2024-01-10T01:35:23.087Z,-4.76
2024-01-10T01:37:50.780Z,-4.76
2024-01-10T01:40:17.604Z,-4.76
2024-01-10T01:42:46.328Z,-4.77
2024-01-10T01:45:13.541Z,-4.79
2024-01-10T01:47:41.567Z,-4.81
2024-01-10T01:50:08.916Z,-4.80
2024-01-10T01:52:36.404Z,-4.82
2024-01-10T01:55:03.762Z,-4.83
2024-01-10T01:57:30.808Z,-4.85
2024-01-10T01:59:58.145Z,-4.83
2024-01-10T02:02:25.965Z,-4.83
2024-01-10T02:04:53.187Z,-4.84
2024-01-10T02:07:19.842Z,-4.84
2024-01-10T02:09:46.546Z,-4.83
2024-01-10T02:12:13.262Z,-4.84
2024-01-10T02:14:39.991Z,-4.84
2024-01-10T02:17:06.809Z,-4.84
2024-01-10T02:19:36.109Z,-4.85
2024-01-10T02:22:04.091Z,-4.88
2024-01-10T02:24:30.685Z,-4.88
2024-01-10T02:26:57.465Z,-4.91
2024-01-10T02:29:25.335Z,-4.91
2024-01-10T02:31:52.203Z,-4.89
2024-01-10T02:34:19.005Z,-4.92
2024-01-10T02:36:45.621Z,-4.91
2024-01-10T02:39:12.252Z,-4.93
2024-01-10T02:41:39.096Z,-4.94
2024-01-10T02:44:05.815Z,-4.96
2024-01-10T02:46:32.672Z,-4.95
2024-01-10T02:48:59.398Z,-4.96
2024-01-10T02:51:29.822Z,-4.98
2024-01-10T02:53:56.407Z,-4.99
2024-01-10T02:56:23.051Z,-4.99
2024-01-10T02:58:49.643Z,-5.00
2024-01-10T03:01:16.888Z,-5.00
2024-01-10T03:03:43.623Z,-5.00
2024-01-10T03:06:10.407Z,-5.01
2024-01-10T03:08:37.102Z,-5.02
2024-01-10T03:11:04.142Z,-5.02
2024-01-10T03:13:31.199Z,-5.02
2024-01-10T03:15:58.028Z,-5.03
2024-01-10T03:18:25.391Z,-5.04
2024-01-10T03:20:52.185Z,-5.05
2024-01-10T03:23:19.269Z,-5.05
2024-01-10T03:25:48.080Z,-5.07
2024-01-10T03:28:19.044Z,-5.07
2024-01-10T03:30:46.148Z,-5.06
2024-01-10T03:33:12.959Z,-5.07
2024-01-10T03:35:39.724Z,-5.08
2024-01-10T03:38:06.919Z,-5.09
2024-01-10T03:40:33.737Z,-5.10
2024-01-10T03:43:00.652Z,-5.11
2024-01-10T03:45:27.450Z,-5.11
2024-01-10T03:47:54.624Z,-5.14
2024-01-10T03:50:21.625Z,-5.12
2024-01-10T03:52:48.672Z,-5.13
2024-01-10T03:55:16.631Z,-5.15
2024-01-10T03:57:43.769Z,-5.16
2024-01-10T04:00:10.862Z,-5.15
2024-01-10T04:02:40.138Z,-5.17
2024-01-10T04:05:09.486Z,-5.17
2024-01-10T04:07:37.560Z,-5.19
2024-01-10T04:10:04.892Z,-5.18
2024-01-10T04:12:31.537Z,-5.18
2024-01-10T04:14:58.741Z,-5.20
2024-01-10T04:17:25.459Z,-5.20
2024-01-10T04:19:52.484Z,-5.19
2024-01-10T04:22:19.428Z,-5.21
2024-01-10T04:24:46.071Z,-5.22
2024-01-10T04:27:13.038Z,-5.23
2024-01-10T04:29:39.862Z,-5.22
2024-01-10T04:32:06.844Z,-5.24
2024-01-10T04:34:33.760Z,-5.22
2024-01-10T04:37:01.085Z,-5.24
2024-01-10T04:39:27.792Z,-5.24
2024-01-10T04:41:54.928Z,-5.25
2024-01-10T04:44:21.640Z,-5.25
2024-01-10T04:46:48.443Z,-5.25
2024-01-10T04:49:15.031Z,-5.28
2024-01-10T04:51:41.846Z,-5.28
2024-01-10T04:54:08.417Z,-5.25
2024-01-10T04:56:37.258Z,-5.28
2024-01-10T04:59:04.445Z,-5.29
2024-01-10T05:01:31.770Z,-5.29
2024-01-10T05:03:58.633Z,-5.30
2024-01-10T05:06:25.311Z,-5.31
2024-01-10T05:08:52.167Z,-5.31
2024-01-10T05:11:19.069Z,-5.32
2024-01-10T05:13:45.788Z,-5.32
2024-01-10T05:16:12.642Z,-5.30
2024-01-10T05:18:39.296Z,-5.33
2024-01-10T05:21:06.083Z,-5.31
2024-01-10T05:23:33.821Z,-5.33
2024-01-10T05:26:01.097Z,-5.34
2024-01-10T05:28:27.756Z,-5.33
2024-01-10T05:30:55.717Z,-5.34
2024-01-10T05:33:22.776Z,-5.34
2024-01-10T05:35:49.515Z,-5.35
2024-01-10T05:38:16.277Z,-5.34
2024-01-10T05:40:43.052Z,-5.37
2024-01-10T05:43:11.694Z,-5.37
2024-01-10T05:45:38.382Z,-5.38
2024-01-10T05:48:05.872Z,-5.40
2024-01-10T05:50:33.070Z,-5.39
2024-01-10T05:52:59.748Z,-5.38
2024-01-10T05:55:26.357Z,-5.40
2024-01-10T05:57:53.149Z,-5.39
2024-01-10T06:00:22.397Z,-5.38
2024-01-10T06:02:49.151Z,-5.40
2024-01-10T06:05:16.063Z,-5.41
2024-01-10T06:07:43.350Z,-5.40
2024-01-10T06:10:12.669Z,-5.41
2024-01-10T06:12:39.768Z,-5.41
2024-01-10T06:15:08.150Z,-5.42
2024-01-10T06:17:35.002Z,-5.43
2024-01-10T06:20:02.108Z,-5.43
2024-01-10T06:22:30.688Z,-5.45
2024-01-10T06:24:57.663Z,-5.44
2024-01-10T06:27:24.367Z,-5.44
2024-01-10T06:29:51.206Z,-5.44
2024-01-10T06:32:18.173Z,-5.45
2024-01-10T06:34:45.099Z,-5.46
2024-01-10T06:37:11.830Z,-5.47
2024-01-10T06:39:38.457Z,-5.49
2024-01-10T06:42:07.332Z,-5.50
2024-01-10T06:44:34.926Z,-5.50
2024-01-10T06:47:01.664Z,-5.50
2024-01-10T06:49:28.836Z,-5.52
2024-01-10T06:51:55.658Z,-5.52
2024-01-10T06:54:22.485Z,-5.54
2024-01-10T06:56:48.997Z,-5.54
2024-01-10T06:59:15.698Z,-5.56
2024-01-10T07:01:42.354Z,-5.57
2024-01-10T07:04:11.389Z,-5.58
2024-01-10T07:06:38.125Z,-5.58
2024-01-10T07:09:06.872Z,-5.60
2024-01-10T07:11:33.741Z,-5.61
2024-01-10T07:14:00.654Z,-5.61
2024-01-10T07:16:27.943Z,-5.62
2024-01-10T07:18:54.627Z,-5.63
2024-01-10T07:21:21.427Z,-5.66
2024-01-10T07:23:48.066Z,-5.70
2024-01-10T07:26:17.939Z,-5.72
2024-01-10T07:28:44.958Z,-5.75
2024-01-10T07:31:13.280Z,-5.75
2024-01-10T07:33:40.201Z,-5.72
2024-01-10T07:36:07.311Z,-5.68
2024-01-10T07:38:37.281Z,-5.64
2024-01-10T07:41:04.943Z,-5.61
2024-01-10T07:43:32.153Z,-5.55
2024-01-10T07:45:58.726Z,-5.49
2024-01-10T07:48:26.162Z,-5.41
2024-01-10T07:50:52.808Z,-5.31
2024-01-10T07:53:19.584Z,-5.24
2024-01-10T07:55:46.315Z,-5.16
2024-01-10T07:58:12.935Z,-5.09
2024-01-10T08:00:40.212Z,-5.00
2024-01-10T08:03:06.983Z,-4.94
2024-01-10T08:05:33.726Z,-4.85
2024-01-10T08:08:00.481Z,-4.78
2024-01-10T08:10:28.576Z,-4.72
2024-01-10T08:12:55.739Z,-4.66
2024-01-10T08:15:23.003Z,-4.60
2024-01-10T08:17:50.854Z,-4.54
2024-01-10T08:20:22.557Z,-4.48
2024-01-10T08:22:50.048Z,-4.43
2024-01-10T08:25:20.204Z,-4.38
2024-01-10T08:27:47.646Z,-4.32
2024-01-10T08:30:14.662Z,-4.27
2024-01-10T08:32:41.670Z,-4.20
2024-01-10T08:35:10.402Z,-4.16
2024-01-10T08:37:38.673Z,-4.12
2024-01-10T08:40:11.219Z,-4.07
2024-01-10T08:42:39.154Z,-4.02
2024-01-10T08:45:06.216Z,-3.99
2024-01-10T08:47:34.037Z,-3.94
2024-01-10T08:50:00.876Z,-3.90
2024-01-10T08:52:27.846Z,-3.85
2024-01-10T08:54:54.464Z,-3.80
2024-01-10T08:57:21.150Z,-3.75
2024-01-10T08:59:47.877Z,-3.73
2024-01-10T09:02:14.636Z,-3.70
2024-01-10T09:05:32.439Z,-3.63
2024-01-10T09:08:34.959Z,-3.58
2024-01-10T09:11:39.928Z,-3.53
2024-01-10T09:43:55.105Z,-3.04
2024-01-10T09:46:22.036Z,-2.99
2024-01-10T09:48:50.881Z,-2.94
2024-01-10T09:51:19.692Z,-2.90
2024-01-10T09:53:51.830Z,-2.86
2024-01-10T09:56:18.726Z,-2.78
2024-01-10T09:58:49.300Z,-2.74
2024-01-10T10:01:16.162Z,-2.69
2024-01-10T10:03:47.293Z,-2.66
2024-01-10T10:06:16.366Z,-2.60
2024-01-10T10:08:43.312Z,-2.57
2024-01-10T10:11:15.287Z,-2.51
2024-01-10T10:13:43.492Z,-2.45
2024-01-10T10:16:14.457Z,-2.45
2024-01-10T10:18:44.030Z,-2.40
2024-01-10T10:21:13.620Z,-2.36
2024-01-10T10:23:58.162Z,-2.32
2024-01-10T10:26:25.070Z,-2.25
2024-01-10T10:28:53.301Z,-2.24
2024-01-10T10:31:21.110Z,-2.21
2024-01-10T10:33:52.150Z,-2.17
2024-01-10T10:36:20.386Z,-2.08
2024-01-10T10:38:50.410Z,-2.06
2024-01-10T10:41:17.636Z,-2.01
2024-01-10T10:43:44.644Z,-1.96
2024-01-10T10:46:16.101Z,-1.92
2024-01-10T10:48:44.515Z,-1.88
2024-01-10T10:51:38.053Z,-1.82
2024-01-10T10:54:05.843Z,-1.77
2024-01-10T10:56:38.034Z,-1.75
2024-01-10T10:59:06.211Z,-1.70
2024-01-10T11:01:33.928Z,-1.65
2024-01-10T11:04:00.810Z,-1.58
2024-01-10T11:06:28.391Z,-1.56
2024-01-10T11:09:12.304Z,-1.52
2024-01-10T11:11:38.941Z,-1.50
2024-01-10T11:15:04.365Z,-1.43
2024-01-10T11:17:59.135Z,-1.39
2024-01-10T11:21:01.102Z,-1.36
2024-01-10T11:23:47.562Z,-1.31
2024-01-10T11:26:16.386Z,-1.29
2024-01-10T11:28:43.436Z,-1.26
2024-01-10T11:31:10.651Z,-1.24
2024-01-10T11:33:42.285Z,-1.18
2024-01-10T11:36:12.157Z,-1.12
2024-01-10T11:38:49.636Z,-1.06
2024-01-10T11:41:26.012Z,-1.07
2024-01-10T11:44:19.182Z,-1.03
2024-01-10T11:46:50.595Z,-0.99
2024-01-10T11:49:19.418Z,-0.95
2024-01-10T11:51:49.163Z,-0.91
2024-01-10T11:54:38.811Z,-0.88
2024-01-10T11:57:20.104Z,-0.85
2024-01-10T11:59:47.091Z,-0.82
2024-01-10T12:02:16.152Z,-0.77
2024-01-10T12:04:47.581Z,-0.74
2024-01-10T12:07:17.806Z,-0.73
2024-01-10T12:09:45.047Z,-0.69
2024-01-10T12:12:12.751Z,-0.65
2024-01-10T12:14:44.644Z,-0.63
2024-01-10T12:17:11.587Z,-0.61
2024-01-10T12:19:39.065Z,-0.57
2024-01-10T12:22:08.239Z,-0.51
2024-01-10T12:24:45.124Z,-0.50
2024-01-10T12:27:11.703Z,-0.44
2024-01-10T12:29:38.995Z,-0.43
2024-01-10T12:32:06.257Z,-0.41
2024-01-10T12:34:33.020Z,-0.38
2024-01-10T12:37:01.567Z,-0.37
2024-01-10T12:39:32.751Z,-0.31
2024-01-10T12:41:59.962Z,-0.28
2024-01-10T12:44:33.039Z,-0.26
2024-01-10T12:47:01.488Z,-0.24
2024-01-10T12:49:28.383Z,-0.25
2024-01-10T12:51:56.012Z,-0.21
2024-01-10T12:54:22.613Z,-0.20
2024-01-10T12:56:49.416Z,-0.15
2024-01-10T12:59:16.249Z,-0.14
2024-01-10T13:01:43.723Z,-0.13
2024-01-10T13:04:13.058Z,-0.09
2024-01-10T13:06:40.650Z,-0.08
2024-01-10T13:09:08.836Z,-0.05
2024-01-10T13:11:35.627Z,-0.04
2024-01-10T13:14:08.395Z,-0.02
2024-01-10T13:16:46.174Z,0.00
2024-01-10T13:19:20.536Z,0.03
2024-01-10T13:21:47.383Z,0.03
2024-01-10T13:24:14.499Z,0.03
2024-01-10T13:26:41.229Z,0.06
2024-01-10T13:29:08.614Z,0.07
2024-01-10T13:31:37.751Z,0.06
2024-01-10T13:34:05.803Z,0.07
2024-01-10T13:36:32.574Z,0.10
2024-01-10T13:38:59.175Z,0.10
2024-01-10T13:41:27.212Z,0.12
2024-01-10T13:43:54.031Z,0.11
2024-01-10T13:46:21.029Z,0.10
2024-01-10T13:48:47.816Z,0.12
2024-01-10T13:51:14.707Z,0.14
2024-01-10T13:53:41.425Z,0.13
2024-01-10T13:56:08.250Z,0.16
2024-01-10T13:58:34.995Z,0.15
2024-01-10T14:01:01.728Z,0.15
2024-01-10T14:03:31.353Z,0.14
2024-01-10T14:06:00.073Z,0.20
2024-01-10T14:08:29.544Z,0.18
2024-01-10T14:10:56.615Z,0.19
2024-01-10T14:13:24.666Z,0.19
2024-01-10T14:15:51.512Z,0.22
2024-01-10T14:18:18.269Z,0.21
2024-01-10T14:20:45.373Z,0.20
2024-01-10T14:23:13.976Z,0.23
2024-01-10T14:25:40.871Z,0.22
2024-01-10T14:28:07.600Z,0.24
2024-01-10T14:30:34.287Z,0.22
2024-01-10T14:33:01.346Z,0.23
2024-01-10T14:35:28.541Z,0.22
2024-01-10T14:37:55.532Z,0.20
2024-01-10T14:40:24.965Z,0.19
2024-01-10T14:42:51.806Z,0.22
2024-01-10T14:45:18.560Z,0.20
2024-01-10T14:47:45.784Z,0.19
2024-01-10T14:50:12.807Z,0.19
2024-01-10T14:52:39.584Z,0.17
2024-01-10T14:55:06.521Z,0.17
2024-01-10T14:57:34.500Z,0.17
2024-01-10T15:00:01.436Z,0.16
2024-01-10T15:02:28.249Z,0.16
2024-01-10T15:04:54.905Z,0.14
2024-01-10T15:07:21.980Z,0.14
2024-01-10T15:09:48.502Z,0.14
2024-01-10T15:12:15.135Z,0.15
2024-01-10T15:14:42.574Z,0.14
2024-01-10T15:17:11.377Z,0.12
2024-01-10T15:19:39.771Z,0.12
2024-01-10T15:22:07.109Z,0.09
2024-01-10T15:24:33.992Z,0.06
2024-01-10T15:27:08.296Z,0.03
2024-01-10T15:29:35.406Z,0.02
2024-01-10T15:32:02.578Z,0.00
2024-01-10T15:34:29.525Z,-0.02
2024-01-10T15:36:56.264Z,-0.04
2024-01-10T15:39:23.665Z,-0.06
2024-01-10T15:41:51.157Z,-0.07
2024-01-10T15:44:22.096Z,-0.08
2024-01-10T15:46:50.445Z,-0.10
2024-01-10T15:49:17.625Z,-0.13
2024-01-10T15:51:44.551Z,-0.14
2024-01-10T15:54:14.053Z,-0.16
2024-01-10T15:56:42.566Z,-0.18
2024-01-10T15:59:10.523Z,-0.21
2024-01-10T16:01:37.472Z,-0.22
2024-01-10T16:04:04.594Z,-0.24
2024-01-10T16:06:35.802Z,-0.26
2024-01-10T16:09:04.803Z,-0.28
2024-01-10T16:11:32.026Z,-0.28
2024-01-10T16:13:58.937Z,-0.32
2024-01-10T16:16:31.063Z,-0.33
2024-01-10T16:18:58.807Z,-0.35
2024-01-10T16:21:25.793Z,-0.35
2024-01-10T16:23:52.475Z,-0.36
2024-01-10T16:26:19.349Z,-0.39
2024-01-10T16:28:47.325Z,-0.39
2024-01-10T16:31:14.182Z,-0.42
2024-01-10T16:33:41.207Z,-0.44
2024-01-10T16:36:08.337Z,-0.46
2024-01-10T16:38:35.208Z,-0.47
2024-01-10T16:41:02.358Z,-0.49
2024-01-10T16:43:29.050Z,-0.50
2024-01-10T16:45:58.435Z,-0.52
2024-01-10T16:48:27.567Z,-0.54
2024-01-10T16:50:56.433Z,-0.56
2024-01-10T16:53:23.595Z,-0.59
2024-01-10T16:55:51.027Z,-0.61
2024-01-10T16:58:18.048Z,-0.65
2024-01-10T17:00:45.884Z,-0.67
2024-01-10T17:03:12.717Z,-0.69
2024-01-10T17:05:43.158Z,-0.70
2024-01-10T17:08:11.200Z,-0.71
2024-01-10T17:10:38.529Z,-0.72
2024-01-10T17:13:06.196Z,-0.73
2024-01-10T17:15:33.133Z,-0.75
2024-01-10T17:18:01.391Z,-0.75
2024-01-10T17:20:28.564Z,-0.77
2024-01-10T17:22:55.875Z,-0.76
2024-01-10T17:25:24.956Z,-0.78
2024-01-10T17:27:53.436Z,-0.82
2024-01-10T17:30:21.487Z,-0.82
2024-01-10T17:32:48.867Z,-0.82
2024-01-10T17:35:17.541Z,-0.84
2024-01-10T17:37:45.125Z,-0.83
2024-01-10T17:40:12.503Z,-0.84
2024-01-10T17:42:40.100Z,-0.84
2024-01-10T17:45:08.155Z,-0.85
2024-01-10T17:47:35.175Z,-0.88
2024-01-10T17:50:01.962Z,-0.89
2024-01-10T17:52:28.708Z,-0.91
2024-01-10T17:54:55.582Z,-0.91
2024-01-10T17:57:26.661Z,-0.90
2024-01-10T17:59:55.336Z,-0.93
2024-01-10T18:02:22.364Z,-0.92
2024-01-10T18:04:50.256Z,-0.92
2024-01-10T18:07:17.378Z,-0.91
2024-01-10T18:09:44.285Z,-0.93
2024-01-10T18:12:10.827Z,-0.94
2024-01-10T18:14:38.269Z,-0.94
2024-01-10T18:17:05.392Z,-0.96
2024-01-10T18:19:32.252Z,-0.97
2024-01-10T18:22:00.144Z,-0.96
2024-01-10T18:24:27.096Z,-0.97
2024-01-10T18:26:53.642Z,-0.98
2024-01-10T18:29:20.705Z,-0.99
2024-01-10T18:31:48.197Z,-0.98
2024-01-10T18:34:15.384Z,-0.98
2024-01-10T18:36:42.202Z,-0.98
2024-01-10T18:39:09.633Z,-0.99
2024-01-10T18:41:37.207Z,-1.01
2024-01-10T18:44:06.060Z,-1.02
2024-01-10T18:46:32.709Z,-1.04
2024-01-10T18:48:59.477Z,-1.03
2024-01-10T18:51:26.078Z,-1.07
2024-01-10T18:53:53.086Z,-1.04
2024-01-10T18:56:19.714Z,-1.06
2024-01-10T18:58:47.001Z,-1.06
2024-01-10T19:01:13.818Z,-1.07
2024-01-10T19:03:40.752Z,-1.08
2024-01-10T19:06:09.316Z,-1.09
2024-01-10T19:08:36.859Z,-1.10
2024-01-10T19:11:06.948Z,-1.10
2024-01-10T19:13:40.058Z,-1.11
2024-01-10T19:16:11.182Z,-1.13
2024-01-10T19:18:39.649Z,-1.14
2024-01-10T19:21:07.808Z,-1.14
2024-01-10T19:23:35.209Z,-1.12
2024-01-10T19:26:02.145Z,-1.13
2024-01-10T19:28:28.971Z,-1.15
2024-01-10T19:30:58.470Z,-1.15
2024-01-10T19:33:25.800Z,-1.16
2024-01-10T19:35:52.739Z,-1.18
2024-01-10T19:38:20.391Z,-1.20
2024-01-10T19:40:47.243Z,-1.22
2024-01-10T19:43:23.240Z,-1.22
2024-01-10T19:45:49.947Z,-1.25
2024-01-10T19:48:16.629Z,-1.23
2024-01-10T19:50:44.432Z,-1.24
2024-01-10T19:53:11.319Z,-1.26
2024-01-10T19:55:38.086Z,-1.24
2024-01-10T19:58:04.712Z,-1.25
2024-01-10T20:00:31.530Z,-1.26
2024-01-10T20:02:58.554Z,-1.27
2024-01-10T20:05:25.395Z,-1.27
2024-01-10T20:07:52.212Z,-1.26
2024-01-10T20:10:18.836Z,-1.25
2024-01-10T20:12:45.411Z,-1.28
2024-01-10T20:15:14.036Z,-1.31
2024-01-10T20:17:41.011Z,-1.32
2024-01-10T20:20:08.527Z,-1.33
2024-01-10T20:22:37.202Z,-1.35
2024-01-10T20:25:04.083Z,-1.36
2024-01-10T20:27:30.855Z,-1.38
2024-01-10T20:29:57.507Z,-1.41
2024-01-10T20:32:24.311Z,-1.41
2024-01-10T20:34:54.603Z,-1.44
2024-01-10T20:37:22.928Z,-1.44
2024-01-10T20:39:49.916Z,-1.46
2024-01-10T20:42:16.599Z,-1.50
2024-01-10T20:44:45.845Z,-1.51
2024-01-10T20:47:12.798Z,-1.51
2024-01-10T20:49:39.554Z,-1.51
2024-01-10T20:52:06.656Z,-1.53
2024-01-10T20:54:35.992Z,-1.54
2024-01-10T20:57:06.940Z,-1.55
2024-01-10T20:59:33.577Z,-1.57
2024-01-10T21:02:00.366Z,-1.59
2024-01-10T21:04:26.996Z,-1.63
2024-01-10T21:07:08.326Z,-1.69
2024-01-10T21:09:40.768Z,-1.77
2024-01-10T21:12:11.911Z,-1.85
2024-01-10T21:14:41.847Z,-1.91
2024-01-10T21:17:11.123Z,-2.00
2024-01-10T21:19:37.824Z,-2.08
2024-01-10T21:22:04.664Z,-2.14
2024-01-10T21:24:34.743Z,-2.22
2024-01-10T21:27:01.919Z,-2.31
2024-01-10T21:29:28.505Z,-2.37
2024-01-10T21:31:55.179Z,-2.45
2024-01-10T21:34:21.893Z,-2.51
2024-01-10T21:36:48.806Z,-2.57
2024-01-10T21:39:15.405Z,-2.62
2024-01-10T21:41:41.931Z,-2.73
2024-01-10T21:44:08.594Z,-2.78
2024-01-10T21:46:35.385Z,-2.86
2024-01-10T21:49:02.002Z,-2.88
2024-01-10T21:51:28.908Z,-2.92
2024-01-10T21:53:55.626Z,-2.95
2024-01-10T21:56:22.298Z,-2.98
2024-01-10T21:58:51.653Z,-3.00
2024-01-10T22:01:18.983Z,-3.06
2024-01-10T22:03:45.920Z,-3.10
2024-01-10T22:06:12.904Z,-3.12
2024-01-10T22:08:39.628Z,-3.16
2024-01-10T22:11:06.244Z,-3.20
2024-01-10T22:13:32.953Z,-3.23
2024-01-10T22:16:00.935Z,-3.24
2024-01-10T22:18:27.829Z,-3.28
2024-01-10T22:20:57.105Z,-3.33
2024-01-10T22:23:23.878Z,-3.34
2024-01-10T22:25:50.817Z,-3.40
2024-01-10T22:28:17.727Z,-3.46
2024-01-10T22:30:44.539Z,-3.53
2024-01-10T22:33:12.553Z,-3.55
2024-01-10T22:35:39.510Z,-3.56
2024-01-10T22:38:06.146Z,-3.56
2024-01-10T22:40:33.188Z,-3.58
2024-01-10T22:42:59.844Z,-3.62
2024-01-10T22:45:26.818Z,-3.64
2024-01-10T22:47:53.578Z,-3.64
2024-01-10T22:50:20.523Z,-3.68
2024-01-10T22:52:47.275Z,-3.69
2024-01-10T22:55:14.009Z,-3.72
2024-01-10T22:57:41.317Z,-3.72
2024-01-10T23:00:13.287Z,-3.74
2024-01-10T23:02:40.121Z,-3.77
2024-01-10T23:05:08.749Z,-3.77
2024-01-10T23:07:35.620Z,-3.80
2024-01-10T23:10:02.407Z,-3.81
2024-01-10T23:12:29.240Z,-3.82
2024-01-10T23:14:56.078Z,-3.86
2024-01-10T23:17:23.011Z,-3.89
2024-01-10T23:19:49.836Z,-3.92
2024-01-10T23:22:16.608Z,-3.92
2024-01-10T23:24:44.678Z,-3.93
2024-01-10T23:27:11.515Z,-3.95
2024-01-10T23:29:38.386Z,-3.99
2024-01-10T23:32:05.911Z,-4.00
2024-01-10T23:34:32.601Z,-4.01
2024-01-10T23:36:59.611Z,-4.03
2024-01-10T23:39:26.189Z,-4.06
2024-01-10T23:41:52.841Z,-4.09
2024-01-10T23:44:19.544Z,-4.10
2024-01-10T23:46:46.571Z,-4.12
2024-01-10T23:49:13.635Z,-4.13
2024-01-10T23:51:40.233Z,-4.15
2024-01-10T23:54:07.467Z,-4.20
2024-01-10T23:56:35.916Z,-4.26
2024-01-10T23:59:03.183Z,-4.30
